createdAt,value
2022-11-02T00:04:24.002Z,17.40
2022-11-02T00:09:18.120Z,17.02
2022-11-02T00:14:11.980Z,17.70
2022-11-02T00:19:05.637Z,18.70
2022-11-02T00:23:59.853Z,19.27
2022-11-02T00:28:55.257Z,19.52
2022-11-02T00:33:48.895Z,19.98
2022-11-02T00:38:42.862Z,17.80
2022-11-02T00:43:35.941Z,18.70
2022-11-02T00:48:29.486Z,18.48
2022-11-02T00:53:22.601Z,19.50
2022-11-02T00:58:18.753Z,18.83
2022-11-02T01:08:07.933Z,18.83
2022-11-02T01:13:02.561Z,19.73
2022-11-02T01:17:54.914Z,20.63
2022-11-02T01:22:47.644Z,20.58
2022-11-02T01:27:41.025Z,21.67
2022-11-02T01:32:33.698Z,21.55
2022-11-02T01:37:27.461Z,19.80
2022-11-02T01:42:22.691Z,20.08
2022-11-02T01:47:24.971Z,21.08
2022-11-02T01:52:22.143Z,17.92
2022-11-02T01:57:18.562Z,16.80
2022-11-02T02:02:23.481Z,16.98
2022-11-02T02:07:17.443Z,16.50
2022-11-02T02:12:11.677Z,18.13
2022-11-02T02:17:26.909Z,17.98
2022-11-02T02:22:46.621Z,18.70
2022-11-02T02:28:01.132Z,19.08
2022-11-02T02:32:57.594Z,18.70
2022-11-02T02:37:58.593Z,18.35
2022-11-02T02:42:58.699Z,17.75
2022-11-02T02:48:21.092Z,16.33
2022-11-02T02:53:16.610Z,17.85
2022-11-02T02:58:16.586Z,17.70
2022-11-02T03:03:10.596Z,16.65
2022-11-02T03:08:26.870Z,17.75
2022-11-02T03:13:40.549Z,17.23
2022-11-02T03:19:16.510Z,16.20
2022-11-02T03:24:37.313Z,16.00
2022-11-02T03:30:01.922Z,14.02
2022-11-02T03:34:59.140Z,14.75
2022-11-02T03:40:20.836Z,16.50
2022-11-02T03:45:45.312Z,14.68
2022-11-02T03:50:41.313Z,15.10
2022-11-02T03:55:56.542Z,14.43
2022-11-02T04:01:20.663Z,14.50
2022-11-02T04:06:34.282Z,14.00
2022-11-02T04:12:05.708Z,14.43
2022-11-02T04:17:18.693Z,13.20
2022-11-02T04:22:32.603Z,13.38
2022-11-02T04:27:33.585Z,13.98
2022-11-02T04:33:24.795Z,13.68
2022-11-02T04:38:46.142Z,13.77
2022-11-02T04:43:52.094Z,12.23
2022-11-02T04:48:46.403Z,12.50
2022-11-02T04:53:40.989Z,12.40
2022-11-02T04:58:35.277Z,14.25
2022-11-02T05:03:30.973Z,15.15
2022-11-02T05:08:24.615Z,15.77
2022-11-02T05:13:19.027Z,18.08
2022-11-02T05:18:17.618Z,19.73
2022-11-02T05:23:11.991Z,21.67
2022-11-02T05:28:05.516Z,22.70
2022-11-02T05:32:59.315Z,25.52
2022-11-02T05:37:56.623Z,26.02
2022-11-02T05:42:50.788Z,27.35
2022-11-02T05:47:44.808Z,31.35
2022-11-02T05:52:38.912Z,29.40
2022-11-02T05:57:32.355Z,29.83
2022-11-02T06:02:26.799Z,27.85
2022-11-02T06:07:19.652Z,30.02
2022-11-02T06:12:13.125Z,31.27
2022-11-02T06:17:07.518Z,29.98
2022-11-02T06:22:00.803Z,23.42
2022-11-02T06:26:54.407Z,23.30
2022-11-02T06:31:49.922Z,23.33
2022-11-02T06:36:43.946Z,22.80
2022-11-02T06:41:38.400Z,20.85
2022-11-02T06:46:31.924Z,17.60
2022-11-02T06:51:25.826Z,24.27
2022-11-02T06:56:19.998Z,31.30
2022-11-02T07:01:16.153Z,33.40
2022-11-02T07:06:13.903Z,36.08
2022-11-02T07:11:07.675Z,39.72
2022-11-02T07:16:01.805Z,38.47
2022-11-02T07:20:55.625Z,29.15
2022-11-02T07:25:49.488Z,31.00
2022-11-02T07:30:43.586Z,26.63
2022-11-02T07:35:37.751Z,21.50
2022-11-02T07:40:32.713Z,22.33
2022-11-02T07:45:25.531Z,21.23
2022-11-02T07:50:21.453Z,22.83
2022-11-02T07:55:15.127Z,20.77
2022-11-02T08:00:11.168Z,21.23
2022-11-02T08:05:08.295Z,19.80
2022-11-02T08:10:02.259Z,19.80
2022-11-02T08:14:57.534Z,19.13
2022-11-02T08:19:50.881Z,19.92
2022-11-02T08:24:44.611Z,20.67
2022-11-02T08:29:38.289Z,20.63
2022-11-02T08:34:32.454Z,19.00
2022-11-02T08:39:26.530Z,22.15
2022-11-02T08:44:20.675Z,29.75
2022-11-02T08:49:14.912Z,28.63
2022-11-02T08:54:09.262Z,18.92
2022-11-02T08:59:03.009Z,18.20
2022-11-02T09:03:56.834Z,15.88
2022-11-02T09:08:52.804Z,16.33
2022-11-02T09:13:55.661Z,17.40
2022-11-02T09:18:50.365Z,15.95
2022-11-02T09:23:44.479Z,18.77
2022-11-02T09:28:38.857Z,20.15
2022-11-02T09:33:35.055Z,17.63
2022-11-02T09:38:29.323Z,19.00
2022-11-02T09:43:37.319Z,19.05
2022-11-02T09:48:42.948Z,18.83
2022-11-02T09:53:40.854Z,19.85
2022-11-02T09:58:38.498Z,20.15
2022-11-02T10:04:02.554Z,21.45
2022-11-02T10:08:57.951Z,23.13
2022-11-02T10:14:16.466Z,24.45
2022-11-02T10:19:15.680Z,23.67
2022-11-02T10:24:39.871Z,22.05
2022-11-02T10:29:59.997Z,21.38
2022-11-02T10:34:59.183Z,21.38
2022-11-02T10:40:19.847Z,24.50
2022-11-02T10:45:41.098Z,23.42
2022-11-02T10:50:48.861Z,23.55
2022-11-02T10:55:51.882Z,24.30
2022-11-02T11:00:48.696Z,23.08
2022-11-02T11:05:59.472Z,24.80
2022-11-02T11:10:53.540Z,26.05
2022-11-02T11:15:52.743Z,24.88
2022-11-02T11:20:46.423Z,24.05
2022-11-02T11:25:41.376Z,24.75
2022-11-02T11:30:58.806Z,24.50
2022-11-02T11:35:51.316Z,27.02
2022-11-02T11:40:47.192Z,26.05
2022-11-02T11:45:42.080Z,25.27
2022-11-02T11:50:36.440Z,25.02
2022-11-02T11:55:32.851Z,23.90
2022-11-02T12:00:28.630Z,24.45
2022-11-02T12:05:23.969Z,24.65
2022-11-02T12:11:06.593Z,23.02
2022-11-02T12:16:19.199Z,21.55
2022-11-02T12:21:44.894Z,21.20
2022-11-02T12:26:46.394Z,22.30
2022-11-02T12:31:45.282Z,23.67
2022-11-02T12:37:39.160Z,26.30
2022-11-02T12:42:43.137Z,25.65
2022-11-02T12:47:48.967Z,25.77
2022-11-02T12:52:57.422Z,23.77
2022-11-02T12:57:51.425Z,22.88
2022-11-02T13:03:03.138Z,24.23
2022-11-02T13:08:16.772Z,20.83
2022-11-02T13:13:17.469Z,24.05
2022-11-02T13:18:23.755Z,21.95
2022-11-02T13:28:25.003Z,20.73
2022-11-02T13:33:22.244Z,20.90
2022-11-02T13:38:37.230Z,21.80
2022-11-02T13:43:55.481Z,23.15
2022-11-02T13:49:08.710Z,21.25
2022-11-02T13:54:12.386Z,21.80
2022-11-02T13:59:27.046Z,21.05
2022-11-02T14:04:20.960Z,20.83
2022-11-02T14:14:12.823Z,21.77
2022-11-02T14:19:19.767Z,22.83
2022-11-02T14:24:40.575Z,24.30
2022-11-02T14:29:36.525Z,24.35
2022-11-02T14:34:41.354Z,24.92
2022-11-02T14:40:23.233Z,25.20
2022-11-02T14:45:16.156Z,25.50
2022-11-02T14:50:11.876Z,22.77
2022-11-02T14:55:26.403Z,24.90
2022-11-02T15:00:24.292Z,23.73
2022-11-02T15:05:57.913Z,24.77
2022-11-02T15:10:55.005Z,24.42
2022-11-02T15:15:51.235Z,24.55
2022-11-02T15:20:46.339Z,27.35
2022-11-02T15:25:47.941Z,24.80
2022-11-02T15:31:07.589Z,24.08
2022-11-02T15:36:00.949Z,25.45
2022-11-02T15:41:05.986Z,25.00
2022-11-02T15:46:30.274Z,27.60
2022-11-02T15:52:01.221Z,26.98
2022-11-02T15:57:18.924Z,26.20
2022-11-02T16:02:32.385Z,26.60
2022-11-02T16:12:30.881Z,25.13
2022-11-02T16:17:31.424Z,24.23
2022-11-02T16:22:27.330Z,26.85
2022-11-02T16:27:21.985Z,27.23
2022-11-02T16:32:15.927Z,28.40
2022-11-02T16:37:15.830Z,27.52
2022-11-02T16:42:17.924Z,27.50
2022-11-02T16:47:11.230Z,32.78
2022-11-02T16:52:18.145Z,30.90
2022-11-02T16:57:12.249Z,30.25
2022-11-02T17:02:06.264Z,29.70
2022-11-02T17:07:12.021Z,28.58
2022-11-02T17:12:13.766Z,27.80
2022-11-02T17:17:25.933Z,29.02
2022-11-02T17:22:21.850Z,29.40
2022-11-02T17:27:42.121Z,28.00
2022-11-02T17:32:36.661Z,28.70
2022-11-02T17:37:31.849Z,30.08
2022-11-02T17:42:44.120Z,29.30
2022-11-02T17:47:37.695Z,32.28
2022-11-02T17:52:32.038Z,29.63
2022-11-02T17:57:26.377Z,29.17
2022-11-02T18:02:20.934Z,28.67
2022-11-02T18:07:14.187Z,29.83
2022-11-02T18:12:11.426Z,30.05
2022-11-02T18:17:04.178Z,29.38
2022-11-02T18:21:58.079Z,28.80
2022-11-02T18:26:52.009Z,29.42
2022-11-02T18:31:49.183Z,30.50
2022-11-02T18:36:42.389Z,28.10
2022-11-02T18:41:40.734Z,30.25
2022-11-02T18:46:33.894Z,32.42
2022-11-02T18:56:24.337Z,30.05
2022-11-02T19:01:20.579Z,30.80
2022-11-02T19:06:32.715Z,29.60
2022-11-02T19:11:25.957Z,31.50
2022-11-02T19:16:18.949Z,30.77
2022-11-02T19:21:13.502Z,33.47
2022-11-02T19:26:07.743Z,34.33
2022-11-02T19:31:06.367Z,37.40
2022-11-02T19:36:00.975Z,37.05
2022-11-02T19:41:10.159Z,34.60
2022-11-02T19:46:04.280Z,36.17
2022-11-02T19:51:19.092Z,36.97
2022-11-02T19:56:14.091Z,35.88
2022-11-02T20:01:10.626Z,36.63
2022-11-02T20:06:06.507Z,38.30
2022-11-02T20:11:06.993Z,32.85
2022-11-02T20:16:00.043Z,35.95
2022-11-02T20:20:53.728Z,35.63
2022-11-02T20:25:48.306Z,36.25
2022-11-02T20:30:43.392Z,37.38
2022-11-02T20:35:39.366Z,36.20
2022-11-02T20:40:37.507Z,36.63
2022-11-02T20:45:34.405Z,36.03
2022-11-02T20:50:29.222Z,36.70
2022-11-02T20:55:24.521Z,36.13
2022-11-02T21:00:21.457Z,37.47
2022-11-02T21:05:15.475Z,38.53
2022-11-02T21:10:12.088Z,38.38
2022-11-02T21:15:08.811Z,38.42
2022-11-02T21:20:21.161Z,37.67
2022-11-02T21:30:11.486Z,35.35
2022-11-02T21:35:06.187Z,35.13
2022-11-02T21:40:04.619Z,35.67
2022-11-02T21:44:58.722Z,34.70
2022-11-02T21:49:52.214Z,34.90
2022-11-02T21:54:46.117Z,33.05
2022-11-02T21:59:39.870Z,36.28
2022-11-02T22:04:33.111Z,33.88
2022-11-02T22:09:28.733Z,37.38
2022-11-02T22:14:21.938Z,34.03
2022-11-02T22:19:15.584Z,37.72
2022-11-02T22:24:10.336Z,35.63
2022-11-02T22:29:04.080Z,36.53
2022-11-02T22:33:59.952Z,36.92
2022-11-02T22:38:56.831Z,38.38
2022-11-02T22:43:55.405Z,38.08
2022-11-02T22:48:49.004Z,36.47
2022-11-02T22:53:43.066Z,35.67
2022-11-02T22:58:37.089Z,37.78
2022-11-02T23:03:33.818Z,35.58
2022-11-02T23:13:20.584Z,39.75
2022-11-02T23:18:14.276Z,39.35
2022-11-02T23:28:37.593Z,42.33
2022-11-02T23:33:33.917Z,42.80
2022-11-02T23:38:50.222Z,41.13
2022-11-02T23:43:42.605Z,43.38
2022-11-02T23:53:48.125Z,41.40
2022-11-02T23:58:41.493Z,41.67
